sensor_id;sensor_type;location;lat;lon;timestamp;temperature;humidity
38582;DHT22;24349;53.720;10.014;2023-04-15T00:01:25;8.30;99.90
38582;DHT22;24349;53.720;10.014;2023-04-15T00:03:52;8.40;99.90
38582;DHT22;24349;53.720;10.014;2023-04-15T00:06:19;8.30;99.90
38582;DHT22;24349;53.720;10.014;2023-04-15T00:08:45;8.40;99.90
38582;DHT22;24349;53.720;10.014;2023-04-15T00:11:11;8.40;99.90
38582;DHT22;24349;53.720;10.014;2023-04-15T00:13:37;8.40;99.90
38582;DHT22;24349;53.720;10.014;2023-04-15T00:16:05;8.50;99.90
38582;DHT22;24349;53.720;10.014;2023-04-15T00:18:31;8.30;99.90
38582;DHT22;24349;53.720;10.014;2023-04-15T00:20:57;8.30;99.90
38582;DHT22;24349;53.720;10.014;2023-04-15T00:23:23;8.20;99.90
38582;DHT22;24349;53.720;10.014;2023-04-15T00:25:48;8.30;99.90
38582;DHT22;24349;53.720;10.014;2023-04-15T00:28:15;8.20;99.90
38582;DHT22;24349;53.720;10.014;2023-04-15T00:30:41;8.30;99.90
38582;DHT22;24349;53.720;10.014;2023-04-15T00:33:06;8.20;99.90
38582;DHT22;24349;53.720;10.014;2023-04-15T00:35:33;8.30;99.90
38582;DHT22;24349;53.720;10.014;2023-04-15T00:37:58;8.30;99.90
38582;DHT22;24349;53.720;10.014;2023-04-15T00:40:24;8.20;99.90
38582;DHT22;24349;53.720;10.014;2023-04-15T00:42:50;8.20;99.90
38582;DHT22;24349;53.720;10.014;2023-04-15T00:45:17;8.30;99.90
38582;DHT22;24349;53.720;10.014;2023-04-15T00:47:43;8.30;99.90
38582;DHT22;24349;53.720;10.014;2023-04-15T00:50:10;8.30;99.90
38582;DHT22;24349;53.720;10.014;2023-04-15T00:52:37;8.30;99.90
38582;DHT22;24349;53.720;10.014;2023-04-15T00:55:04;8.30;99.90
38582;DHT22;24349;53.720;10.014;2023-04-15T00:57:30;8.30;99.90
38582;DHT22;24349;53.720;10.014;2023-04-15T00:59:56;8.30;99.90
38582;DHT22;24349;53.720;10.014;2023-04-15T01:02:22;8.30;99.90
38582;DHT22;24349;53.720;10.014;2023-04-15T01:04:49;8.40;99.90
38582;DHT22;24349;53.720;10.014;2023-04-15T01:07:14;8.30;99.90
38582;DHT22;24349;53.720;10.014;2023-04-15T01:09:41;8.40;99.90
38582;DHT22;24349;53.720;10.014;2023-04-15T01:12:07;8.40;99.90
38582;DHT22;24349;53.720;10.014;2023-04-15T01:14:34;8.40;99.90
38582;DHT22;24349;53.720;10.014;2023-04-15T01:17:00;8.40;99.90
38582;DHT22;24349;53.720;10.014;2023-04-15T01:19:26;8.40;99.90
38582;DHT22;24349;53.720;10.014;2023-04-15T01:21:53;8.50;99.90
38582;DHT22;24349;53.720;10.014;2023-04-15T01:24:18;8.40;99.90
38582;DHT22;24349;53.720;10.014;2023-04-15T01:26:44;8.40;99.90
38582;DHT22;24349;53.720;10.014;2023-04-15T01:29:11;8.50;99.90
38582;DHT22;24349;53.720;10.014;2023-04-15T01:31:37;8.40;99.90
38582;DHT22;24349;53.720;10.014;2023-04-15T01:34:03;8.40;99.90
38582;DHT22;24349;53.720;10.014;2023-04-15T01:36:29;8.50;99.90
38582;DHT22;24349;53.720;10.014;2023-04-15T01:38:56;8.40;99.90
38582;DHT22;24349;53.720;10.014;2023-04-15T01:41:26;8.50;99.90
38582;DHT22;24349;53.720;10.014;2023-04-15T01:43:52;8.50;99.90
38582;DHT22;24349;53.720;10.014;2023-04-15T01:46:17;8.40;99.90
38582;DHT22;24349;53.720;10.014;2023-04-15T01:48:43;8.40;99.90
38582;DHT22;24349;53.720;10.014;2023-04-15T01:51:09;8.40;99.90
38582;DHT22;24349;53.720;10.014;2023-04-15T01:53:34;8.40;99.90
38582;DHT22;24349;53.720;10.014;2023-04-15T01:56:00;8.40;99.90
38582;DHT22;24349;53.720;10.014;2023-04-15T01:58:25;8.40;99.90
38582;DHT22;24349;53.720;10.014;2023-04-15T02:00:51;8.50;99.90
38582;DHT22;24349;53.720;10.014;2023-04-15T02:03:17;8.30;99.90
38582;DHT22;24349;53.720;10.014;2023-04-15T02:05:43;8.30;99.90
38582;DHT22;24349;53.720;10.014;2023-04-15T02:08:08;8.50;99.90
38582;DHT22;24349;53.720;10.014;2023-04-15T02:10:34;8.40;99.90
38582;DHT22;24349;53.720;10.014;2023-04-15T02:13:00;8.40;99.90
38582;DHT22;24349;53.720;10.014;2023-04-15T02:15:26;8.30;99.90
38582;DHT22;24349;53.720;10.014;2023-04-15T02:17:52;8.30;99.90
38582;DHT22;24349;53.720;10.014;2023-04-15T02:20:20;8.30;99.90
38582;DHT22;24349;53.720;10.014;2023-04-15T02:22:46;8.30;99.90
38582;DHT22;24349;53.720;10.014;2023-04-15T02:25:12;8.40;99.90
38582;DHT22;24349;53.720;10.014;2023-04-15T02:27:38;8.30;99.90
38582;DHT22;24349;53.720;10.014;2023-04-15T02:30:04;8.40;99.90
38582;DHT22;24349;53.720;10.014;2023-04-15T02:32:31;8.40;99.90
38582;DHT22;24349;53.720;10.014;2023-04-15T02:35:02;8.40;99.90
38582;DHT22;24349;53.720;10.014;2023-04-15T02:37:28;8.40;99.90
38582;DHT22;24349;53.720;10.014;2023-04-15T02:39:55;8.40;99.90
38582;DHT22;24349;53.720;10.014;2023-04-15T02:42:21;8.40;99.90
38582;DHT22;24349;53.720;10.014;2023-04-15T02:44:46;8.40;99.90
38582;DHT22;24349;53.720;10.014;2023-04-15T02:47:12;8.40;99.90
38582;DHT22;24349;53.720;10.014;2023-04-15T02:49:38;8.30;99.90
38582;DHT22;24349;53.720;10.014;2023-04-15T02:52:05;8.30;99.90
38582;DHT22;24349;53.720;10.014;2023-04-15T02:54:31;8.40;99.90
38582;DHT22;24349;53.720;10.014;2023-04-15T02:56:58;8.40;99.90
38582;DHT22;24349;53.720;10.014;2023-04-15T02:59:24;8.30;99.90
38582;DHT22;24349;53.720;10.014;2023-04-15T03:01:50;8.30;99.90
38582;DHT22;24349;53.720;10.014;2023-04-15T03:04:16;8.40;99.90
38582;DHT22;24349;53.720;10.014;2023-04-15T03:06:41;8.40;99.90
38582;DHT22;24349;53.720;10.014;2023-04-15T03:09:07;8.40;99.90
38582;DHT22;24349;53.720;10.014;2023-04-15T03:11:33;8.50;99.90
38582;DHT22;24349;53.720;10.014;2023-04-15T03:13:59;8.50;99.90
38582;DHT22;24349;53.720;10.014;2023-04-15T03:16:25;8.50;99.90
38582;DHT22;24349;53.720;10.014;2023-04-15T03:18:50;8.50;99.90
38582;DHT22;24349;53.720;10.014;2023-04-15T03:21:16;8.60;99.90
38582;DHT22;24349;53.720;10.014;2023-04-15T03:23:42;8.50;99.90
38582;DHT22;24349;53.720;10.014;2023-04-15T03:26:08;8.50;99.90
38582;DHT22;24349;53.720;10.014;2023-04-15T03:28:33;8.50;99.90
38582;DHT22;24349;53.720;10.014;2023-04-15T03:30:59;8.50;99.90
38582;DHT22;24349;53.720;10.014;2023-04-15T03:33:24;8.50;99.90
38582;DHT22;24349;53.720;10.014;2023-04-15T03:35:51;8.60;99.90
38582;DHT22;24349;53.720;10.014;2023-04-15T03:38:17;8.50;99.90
38582;DHT22;24349;53.720;10.014;2023-04-15T03:40:43;8.50;99.90
38582;DHT22;24349;53.720;10.014;2023-04-15T03:43:08;8.50;99.90
38582;DHT22;24349;53.720;10.014;2023-04-15T03:45:34;8.40;99.90
38582;DHT22;24349;53.720;10.014;2023-04-15T03:48:00;8.40;99.90
38582;DHT22;24349;53.720;10.014;2023-04-15T03:50:25;8.40;99.90
38582;DHT22;24349;53.720;10.014;2023-04-15T03:52:52;8.40;99.90
38582;DHT22;24349;53.720;10.014;2023-04-15T03:55:17;8.50;99.90
38582;DHT22;24349;53.720;10.014;2023-04-15T03:57:44;8.40;99.90
38582;DHT22;24349;53.720;10.014;2023-04-15T04:00:10;8.40;99.90
38582;DHT22;24349;53.720;10.014;2023-04-15T04:02:35;8.50;99.90
38582;DHT22;24349;53.720;10.014;2023-04-15T04:05:01;8.50;99.90
38582;DHT22;24349;53.720;10.014;2023-04-15T04:07:27;8.50;99.90
38582;DHT22;24349;53.720;10.014;2023-04-15T04:09:52;8.50;99.90
38582;DHT22;24349;53.720;10.014;2023-04-15T04:12:18;8.50;99.90
38582;DHT22;24349;53.720;10.014;2023-04-15T04:14:44;8.60;99.90
38582;DHT22;24349;53.720;10.014;2023-04-15T04:17:09;8.50;99.90
38582;DHT22;24349;53.720;10.014;2023-04-15T04:19:36;8.60;99.90
38582;DHT22;24349;53.720;10.014;2023-04-15T04:22:01;8.60;99.90
38582;DHT22;24349;53.720;10.014;2023-04-15T04:24:27;8.60;99.90
38582;DHT22;24349;53.720;10.014;2023-04-15T04:26:52;8.70;99.90
38582;DHT22;24349;53.720;10.014;2023-04-15T04:29:18;8.60;99.90
38582;DHT22;24349;53.720;10.014;2023-04-15T04:31:43;8.60;99.90
38582;DHT22;24349;53.720;10.014;2023-04-15T04:34:09;8.50;99.90
38582;DHT22;24349;53.720;10.014;2023-04-15T04:36:35;8.60;99.90
38582;DHT22;24349;53.720;10.014;2023-04-15T04:39:00;8.60;99.90
38582;DHT22;24349;53.720;10.014;2023-04-15T04:41:26;8.60;99.90
38582;DHT22;24349;53.720;10.014;2023-04-15T04:43:52;8.60;99.90
38582;DHT22;24349;53.720;10.014;2023-04-15T04:46:17;8.60;99.90
38582;DHT22;24349;53.720;10.014;2023-04-15T04:48:43;8.60;99.90
38582;DHT22;24349;53.720;10.014;2023-04-15T04:51:09;8.60;99.90
38582;DHT22;24349;53.720;10.014;2023-04-15T04:53:35;8.60;99.90
38582;DHT22;24349;53.720;10.014;2023-04-15T04:56:02;8.60;99.90
38582;DHT22;24349;53.720;10.014;2023-04-15T04:58:27;8.60;99.90
38582;DHT22;24349;53.720;10.014;2023-04-15T05:00:53;8.70;99.90
38582;DHT22;24349;53.720;10.014;2023-04-15T05:03:19;8.70;99.90
38582;DHT22;24349;53.720;10.014;2023-04-15T05:05:44;8.70;99.90
38582;DHT22;24349;53.720;10.014;2023-04-15T05:08:10;8.70;99.90
38582;DHT22;24349;53.720;10.014;2023-04-15T05:10:36;8.60;99.90
38582;DHT22;24349;53.720;10.014;2023-04-15T05:13:01;8.70;99.90
38582;DHT22;24349;53.720;10.014;2023-04-15T05:15:27;8.60;99.90
38582;DHT22;24349;53.720;10.014;2023-04-15T05:17:53;8.60;99.90
38582;DHT22;24349;53.720;10.014;2023-04-15T05:20:18;8.70;99.90
38582;DHT22;24349;53.720;10.014;2023-04-15T05:22:44;8.70;99.90
38582;DHT22;24349;53.720;10.014;2023-04-15T05:25:10;8.70;99.90
38582;DHT22;24349;53.720;10.014;2023-04-15T05:27:35;8.60;99.90
38582;DHT22;24349;53.720;10.014;2023-04-15T05:30:01;8.70;99.90
38582;DHT22;24349;53.720;10.014;2023-04-15T05:32:26;8.70;99.90
38582;DHT22;24349;53.720;10.014;2023-04-15T05:34:52;8.60;99.90
38582;DHT22;24349;53.720;10.014;2023-04-15T05:37:18;8.70;99.90
38582;DHT22;24349;53.720;10.014;2023-04-15T05:39:45;8.70;99.90
38582;DHT22;24349;53.720;10.014;2023-04-15T05:42:11;8.70;99.90
38582;DHT22;24349;53.720;10.014;2023-04-15T05:44:37;8.80;99.90
38582;DHT22;24349;53.720;10.014;2023-04-15T05:47:02;8.80;99.90
38582;DHT22;24349;53.720;10.014;2023-04-15T05:49:28;8.80;99.90
38582;DHT22;24349;53.720;10.014;2023-04-15T05:51:54;8.70;99.90
38582;DHT22;24349;53.720;10.014;2023-04-15T05:54:19;8.80;99.90
38582;DHT22;24349;53.720;10.014;2023-04-15T05:56:47;8.70;99.90
38582;DHT22;24349;53.720;10.014;2023-04-15T05:59:13;8.70;99.90
38582;DHT22;24349;53.720;10.014;2023-04-15T06:01:38;8.70;99.90
38582;DHT22;24349;53.720;10.014;2023-04-15T06:04:04;8.80;99.90
38582;DHT22;24349;53.720;10.014;2023-04-15T06:06:30;8.80;99.90
38582;DHT22;24349;53.720;10.014;2023-04-15T06:08:57;8.90;99.90
38582;DHT22;24349;53.720;10.014;2023-04-15T06:11:22;8.90;99.90
38582;DHT22;24349;53.720;10.014;2023-04-15T06:13:48;8.90;99.90
38582;DHT22;24349;53.720;10.014;2023-04-15T06:16:14;8.90;99.90
38582;DHT22;24349;53.720;10.014;2023-04-15T06:18:39;8.90;99.90
38582;DHT22;24349;53.720;10.014;2023-04-15T06:21:05;9.00;99.90
38582;DHT22;24349;53.720;10.014;2023-04-15T06:23:33;9.00;99.90
38582;DHT22;24349;53.720;10.014;2023-04-15T06:25:59;9.00;99.90
38582;DHT22;24349;53.720;10.014;2023-04-15T06:28:25;9.00;99.90
38582;DHT22;24349;53.720;10.014;2023-04-15T06:30:52;9.00;99.90
38582;DHT22;24349;53.720;10.014;2023-04-15T06:33:18;9.00;99.90
38582;DHT22;24349;53.720;10.014;2023-04-15T06:35:43;9.00;99.90
38582;DHT22;24349;53.720;10.014;2023-04-15T06:38:10;9.00;99.90
38582;DHT22;24349;53.720;10.014;2023-04-15T06:40:36;9.10;99.90
38582;DHT22;24349;53.720;10.014;2023-04-15T06:43:02;9.10;99.90
38582;DHT22;24349;53.720;10.014;2023-04-15T06:45:29;9.20;99.90
38582;DHT22;24349;53.720;10.014;2023-04-15T06:47:55;9.20;99.90
38582;DHT22;24349;53.720;10.014;2023-04-15T06:50:21;9.20;99.90
38582;DHT22;24349;53.720;10.014;2023-04-15T06:52:47;9.30;99.90
38582;DHT22;24349;53.720;10.014;2023-04-15T06:55:13;9.30;99.90
38582;DHT22;24349;53.720;10.014;2023-04-15T06:57:39;9.40;99.90
38582;DHT22;24349;53.720;10.014;2023-04-15T07:00:05;9.40;99.90
38582;DHT22;24349;53.720;10.014;2023-04-15T07:02:32;9.40;99.90
38582;DHT22;24349;53.720;10.014;2023-04-15T07:04:57;9.40;99.90
38582;DHT22;24349;53.720;10.014;2023-04-15T07:07:23;9.40;99.90
38582;DHT22;24349;53.720;10.014;2023-04-15T07:09:50;9.40;99.90
38582;DHT22;24349;53.720;10.014;2023-04-15T07:12:16;9.40;99.90
38582;DHT22;24349;53.720;10.014;2023-04-15T07:14:42;9.40;99.90
38582;DHT22;24349;53.720;10.014;2023-04-15T07:17:08;9.50;99.90
38582;DHT22;24349;53.720;10.014;2023-04-15T07:19:33;9.50;99.90
38582;DHT22;24349;53.720;10.014;2023-04-15T07:22:00;9.40;99.90
38582;DHT22;24349;53.720;10.014;2023-04-15T07:24:26;9.50;99.90
38582;DHT22;24349;53.720;10.014;2023-04-15T07:26:54;9.40;99.90
38582;DHT22;24349;53.720;10.014;2023-04-15T07:29:23;9.40;99.90
38582;DHT22;24349;53.720;10.014;2023-04-15T07:31:49;9.40;99.90
38582;DHT22;24349;53.720;10.014;2023-04-15T07:34:14;9.50;99.90
38582;DHT22;24349;53.720;10.014;2023-04-15T07:36:41;9.50;99.90
38582;DHT22;24349;53.720;10.014;2023-04-15T07:39:07;9.50;99.90
38582;DHT22;24349;53.720;10.014;2023-04-15T07:41:33;9.60;99.90
38582;DHT22;24349;53.720;10.014;2023-04-15T07:43:58;9.50;99.90
38582;DHT22;24349;53.720;10.014;2023-04-15T07:46:24;9.50;99.90
38582;DHT22;24349;53.720;10.014;2023-04-15T07:48:51;9.60;99.90
38582;DHT22;24349;53.720;10.014;2023-04-15T07:51:18;9.60;99.90
38582;DHT22;24349;53.720;10.014;2023-04-15T07:53:43;9.60;99.90
38582;DHT22;24349;53.720;10.014;2023-04-15T07:56:09;9.70;99.90
38582;DHT22;24349;53.720;10.014;2023-04-15T07:58:35;9.80;99.90
38582;DHT22;24349;53.720;10.014;2023-04-15T08:01:04;9.90;99.90
38582;DHT22;24349;53.720;10.014;2023-04-15T08:03:30;9.80;99.90
38582;DHT22;24349;53.720;10.014;2023-04-15T08:05:56;9.80;99.90
38582;DHT22;24349;53.720;10.014;2023-04-15T08:08:22;9.80;99.90
38582;DHT22;24349;53.720;10.014;2023-04-15T08:10:48;9.80;99.90
38582;DHT22;24349;53.720;10.014;2023-04-15T08:13:14;9.80;99.90
38582;DHT22;24349;53.720;10.014;2023-04-15T08:15:39;9.80;99.90
38582;DHT22;24349;53.720;10.014;2023-04-15T08:18:05;9.80;99.90
38582;DHT22;24349;53.720;10.014;2023-04-15T08:20:31;9.90;99.90
38582;DHT22;24349;53.720;10.014;2023-04-15T08:22:57;9.90;99.90
38582;DHT22;24349;53.720;10.014;2023-04-15T08:25:23;10.00;99.90
38582;DHT22;24349;53.720;10.014;2023-04-15T08:27:48;10.00;99.90
38582;DHT22;24349;53.720;10.014;2023-04-15T08:30:14;10.00;99.90
38582;DHT22;24349;53.720;10.014;2023-04-15T08:32:41;10.00;99.90
38582;DHT22;24349;53.720;10.014;2023-04-15T08:35:07;10.10;99.90
38582;DHT22;24349;53.720;10.014;2023-04-15T08:37:33;10.10;99.90
38582;DHT22;24349;53.720;10.014;2023-04-15T08:39:59;10.20;99.90
38582;DHT22;24349;53.720;10.014;2023-04-15T08:42:31;10.20;99.90
38582;DHT22;24349;53.720;10.014;2023-04-15T08:45:03;10.30;99.90
38582;DHT22;24349;53.720;10.014;2023-04-15T08:47:30;10.30;99.90
38582;DHT22;24349;53.720;10.014;2023-04-15T08:49:58;10.40;99.90
38582;DHT22;24349;53.720;10.014;2023-04-15T08:52:25;10.40;99.90
38582;DHT22;24349;53.720;10.014;2023-04-15T08:54:54;10.30;99.90
38582;DHT22;24349;53.720;10.014;2023-04-15T08:57:26;10.30;99.90
38582;DHT22;24349;53.720;10.014;2023-04-15T08:59:55;10.40;99.90
38582;DHT22;24349;53.720;10.014;2023-04-15T09:02:23;10.60;99.90
38582;DHT22;24349;53.720;10.014;2023-04-15T09:04:49;10.70;99.90
38582;DHT22;24349;53.720;10.014;2023-04-15T09:07:15;11.00;99.90
38582;DHT22;24349;53.720;10.014;2023-04-15T09:09:41;11.20;99.90
38582;DHT22;24349;53.720;10.014;2023-04-15T09:12:07;11.20;99.90
38582;DHT22;24349;53.720;10.014;2023-04-15T09:14:33;11.30;99.90
38582;DHT22;24349;53.720;10.014;2023-04-15T09:17:01;11.40;99.90
38582;DHT22;24349;53.720;10.014;2023-04-15T09:19:28;11.70;99.90
38582;DHT22;24349;53.720;10.014;2023-04-15T09:21:55;11.80;99.90
38582;DHT22;24349;53.720;10.014;2023-04-15T09:24:22;12.00;99.90
38582;DHT22;24349;53.720;10.014;2023-04-15T09:26:52;12.10;99.90
38582;DHT22;24349;53.720;10.014;2023-04-15T09:29:19;12.30;99.90
38582;DHT22;24349;53.720;10.014;2023-04-15T09:31:44;12.40;99.90
38582;DHT22;24349;53.720;10.014;2023-04-15T09:34:11;12.50;99.90
38582;DHT22;24349;53.720;10.014;2023-04-15T09:39:12;12.70;99.90
38582;DHT22;24349;53.720;10.014;2023-04-15T09:41:38;12.70;99.90
38582;DHT22;24349;53.720;10.014;2023-04-15T09:44:04;12.90;99.90
38582;DHT22;24349;53.720;10.014;2023-04-15T09:46:41;12.90;99.90
38582;DHT22;24349;53.720;10.014;2023-04-15T09:49:08;12.90;99.90
38582;DHT22;24349;53.720;10.014;2023-04-15T09:51:34;12.90;99.90
38582;DHT22;24349;53.720;10.014;2023-04-15T09:54:00;12.90;99.90
38582;DHT22;24349;53.720;10.014;2023-04-15T09:56:34;12.90;99.90
38582;DHT22;24349;53.720;10.014;2023-04-15T09:59:02;13.00;99.90
38582;DHT22;24349;53.720;10.014;2023-04-15T10:01:28;13.30;99.90
38582;DHT22;24349;53.720;10.014;2023-04-15T10:03:56;13.60;99.90
38582;DHT22;24349;53.720;10.014;2023-04-15T10:06:24;13.80;99.90
38582;DHT22;24349;53.720;10.014;2023-04-15T10:08:50;14.10;99.90
38582;DHT22;24349;53.720;10.014;2023-04-15T10:11:17;14.30;99.90
38582;DHT22;24349;53.720;10.014;2023-04-15T10:13:44;14.50;99.90
38582;DHT22;24349;53.720;10.014;2023-04-15T10:16:18;14.90;99.90
38582;DHT22;24349;53.720;10.014;2023-04-15T10:18:45;15.10;99.90
38582;DHT22;24349;53.720;10.014;2023-04-15T10:21:12;15.30;99.90
38582;DHT22;24349;53.720;10.014;2023-04-15T10:23:44;15.80;99.90
38582;DHT22;24349;53.720;10.014;2023-04-15T10:26:11;16.60;99.90
38582;DHT22;24349;53.720;10.014;2023-04-15T10:28:37;17.30;62.80
38582;DHT22;24349;53.720;10.014;2023-04-15T10:31:04;17.70;75.00
38582;DHT22;24349;53.720;10.014;2023-04-15T10:33:30;17.80;54.70
38582;DHT22;24349;53.720;10.014;2023-04-15T10:35:56;17.60;28.00
38582;DHT22;24349;53.720;10.014;2023-04-15T10:38:33;17.50;39.20
38582;DHT22;24349;53.720;10.014;2023-04-15T10:41:25;17.80;19.90
38582;DHT22;24349;53.720;10.014;2023-04-15T10:44:03;17.90;28.90
38582;DHT22;24349;53.720;10.014;2023-04-15T10:46:45;17.60;27.10
38582;DHT22;24349;53.720;10.014;2023-04-15T10:49:14;17.30;18.20
38582;DHT22;24349;53.720;10.014;2023-04-15T10:51:44;17.10;35.20
38582;DHT22;24349;53.720;10.014;2023-04-15T10:54:14;17.40;56.80
38582;DHT22;24349;53.720;10.014;2023-04-15T10:56:41;17.10;26.50
38582;DHT22;24349;53.720;10.014;2023-04-15T10:59:08;16.80;20.90
38582;DHT22;24349;53.720;10.014;2023-04-15T11:01:51;16.50;12.80
38582;DHT22;24349;53.720;10.014;2023-04-15T11:04:55;16.60;28.40
38582;DHT22;24349;53.720;10.014;2023-04-15T11:07:51;17.10;36.40
38582;DHT22;24349;53.720;10.014;2023-04-15T11:12:43;17.30;1.00
38582;DHT22;24349;53.720;10.014;2023-04-15T11:18:24;16.80;1.00
38582;DHT22;24349;53.720;10.014;2023-04-15T11:20:55;16.40;1.00
38582;DHT22;24349;53.720;10.014;2023-04-15T11:23:39;16.00;1.50
38582;DHT22;24349;53.720;10.014;2023-04-15T11:26:09;15.70;1.00
38582;DHT22;24349;53.720;10.014;2023-04-15T11:28:43;15.60;2.90
38582;DHT22;24349;53.720;10.014;2023-04-15T11:31:14;15.40;1.00
38582;DHT22;24349;53.720;10.014;2023-04-15T11:33:57;15.60;10.30
38582;DHT22;24349;53.720;10.014;2023-04-15T11:36:26;16.20;1.00
38582;DHT22;24349;53.720;10.014;2023-04-15T11:38:52;16.00;1.00
38582;DHT22;24349;53.720;10.014;2023-04-15T11:41:22;16.10;1.00
38582;DHT22;24349;53.720;10.014;2023-04-15T11:43:48;15.90;1.00
38582;DHT22;24349;53.720;10.014;2023-04-15T11:46:14;15.70;1.00
38582;DHT22;24349;53.720;10.014;2023-04-15T11:48:45;15.70;1.00
38582;DHT22;24349;53.720;10.014;2023-04-15T11:51:12;15.50;1.00
38582;DHT22;24349;53.720;10.014;2023-04-15T11:53:46;15.40;1.00
38582;DHT22;24349;53.720;10.014;2023-04-15T11:56:25;15.40;1.00
38582;DHT22;24349;53.720;10.014;2023-04-15T11:58:52;15.20;1.00
38582;DHT22;24349;53.720;10.014;2023-04-15T12:01:18;14.90;1.00
38582;DHT22;24349;53.720;10.014;2023-04-15T12:03:46;14.60;10.40
38582;DHT22;24349;53.720;10.014;2023-04-15T12:06:19;14.60;20.70
38582;DHT22;24349;53.720;10.014;2023-04-15T12:17:00;14.70;30.10
38582;DHT22;24349;53.720;10.014;2023-04-15T12:19:34;14.70;1.00
38582;DHT22;24349;53.720;10.014;2023-04-15T12:22:02;14.90;99.90
38582;DHT22;24349;53.720;10.014;2023-04-15T12:24:33;14.80;99.90
38582;DHT22;24349;53.720;10.014;2023-04-15T12:27:05;14.90;99.90
38582;DHT22;24349;53.720;10.014;2023-04-15T12:29:32;14.90;27.00
38582;DHT22;24349;53.720;10.014;2023-04-15T12:32:13;14.80;99.90
38582;DHT22;24349;53.720;10.014;2023-04-15T12:34:40;14.80;1.00
38582;DHT22;24349;53.720;10.014;2023-04-15T12:37:09;14.80;1.00
38582;DHT22;24349;53.720;10.014;2023-04-15T12:39:36;14.90;70.80
38582;DHT22;24349;53.720;10.014;2023-04-15T12:42:04;14.90;99.90
38582;DHT22;24349;53.720;10.014;2023-04-15T12:44:30;14.80;99.90
38582;DHT22;24349;53.720;10.014;2023-04-15T12:46:55;14.70;99.90
38582;DHT22;24349;53.720;10.014;2023-04-15T12:49:22;14.60;99.90
38582;DHT22;24349;53.720;10.014;2023-04-15T12:51:53;14.60;99.90
38582;DHT22;24349;53.720;10.014;2023-04-15T12:54:19;14.70;2.50
38582;DHT22;24349;53.720;10.014;2023-04-15T12:56:47;15.00;24.70
38582;DHT22;24349;53.720;10.014;2023-04-15T12:59:16;15.20;99.90
38582;DHT22;24349;53.720;10.014;2023-04-15T13:01:45;15.40;99.90
38582;DHT22;24349;53.720;10.014;2023-04-15T13:04:11;15.50;99.90
38582;DHT22;24349;53.720;10.014;2023-04-15T13:06:37;15.50;99.90
38582;DHT22;24349;53.720;10.014;2023-04-15T13:09:03;15.40;99.90
38582;DHT22;24349;53.720;10.014;2023-04-15T13:11:29;15.30;99.90
38582;DHT22;24349;53.720;10.014;2023-04-15T13:13:56;15.70;99.90
38582;DHT22;24349;53.720;10.014;2023-04-15T13:16:22;15.90;99.90
38582;DHT22;24349;53.720;10.014;2023-04-15T13:18:49;15.90;99.90
38582;DHT22;24349;53.720;10.014;2023-04-15T13:21:15;15.80;99.90
38582;DHT22;24349;53.720;10.014;2023-04-15T13:23:41;15.70;99.90
38582;DHT22;24349;53.720;10.014;2023-04-15T13:26:07;15.70;99.90
38582;DHT22;24349;53.720;10.014;2023-04-15T13:28:33;16.40;99.90
38582;DHT22;24349;53.720;10.014;2023-04-15T13:30:58;16.60;99.90
38582;DHT22;24349;53.720;10.014;2023-04-15T13:33:25;16.80;99.90
38582;DHT22;24349;53.720;10.014;2023-04-15T13:35:51;16.90;99.90
38582;DHT22;24349;53.720;10.014;2023-04-15T13:38:17;16.50;99.90
38582;DHT22;24349;53.720;10.014;2023-04-15T13:40:42;16.00;99.90
38582;DHT22;24349;53.720;10.014;2023-04-15T13:43:08;15.80;99.90
38582;DHT22;24349;53.720;10.014;2023-04-15T13:45:34;16.00;99.90
38582;DHT22;24349;53.720;10.014;2023-04-15T13:48:00;15.90;99.90
38582;DHT22;24349;53.720;10.014;2023-04-15T13:50:26;15.80;99.90
38582;DHT22;24349;53.720;10.014;2023-04-15T13:52:52;15.60;99.90
38582;DHT22;24349;53.720;10.014;2023-04-15T13:55:17;15.50;99.90
38582;DHT22;24349;53.720;10.014;2023-04-15T13:57:43;15.40;99.90
38582;DHT22;24349;53.720;10.014;2023-04-15T14:00:09;15.50;99.90
38582;DHT22;24349;53.720;10.014;2023-04-15T14:02:35;15.40;99.90
38582;DHT22;24349;53.720;10.014;2023-04-15T14:05:01;15.40;99.90
38582;DHT22;24349;53.720;10.014;2023-04-15T14:07:28;15.30;99.90
38582;DHT22;24349;53.720;10.014;2023-04-15T14:09:55;15.20;99.90
38582;DHT22;24349;53.720;10.014;2023-04-15T14:12:20;15.00;99.90
38582;DHT22;24349;53.720;10.014;2023-04-15T14:14:46;15.00;99.90
38582;DHT22;24349;53.720;10.014;2023-04-15T14:17:12;15.00;99.90
38582;DHT22;24349;53.720;10.014;2023-04-15T14:19:37;15.20;99.90
38582;DHT22;24349;53.720;10.014;2023-04-15T14:22:04;15.40;99.90
38582;DHT22;24349;53.720;10.014;2023-04-15T14:24:30;15.60;99.90
38582;DHT22;24349;53.720;10.014;2023-04-15T14:26:55;15.70;99.90
38582;DHT22;24349;53.720;10.014;2023-04-15T14:29:22;15.40;99.90
38582;DHT22;24349;53.720;10.014;2023-04-15T14:31:47;15.30;99.90
38582;DHT22;24349;53.720;10.014;2023-04-15T14:34:15;15.10;99.90
38582;DHT22;24349;53.720;10.014;2023-04-15T14:36:40;14.90;99.90
38582;DHT22;24349;53.720;10.014;2023-04-15T14:39:06;15.00;99.90
38582;DHT22;24349;53.720;10.014;2023-04-15T14:41:33;15.10;99.90
38582;DHT22;24349;53.720;10.014;2023-04-15T14:43:58;15.20;99.90
38582;DHT22;24349;53.720;10.014;2023-04-15T14:46:24;15.30;99.90
38582;DHT22;24349;53.720;10.014;2023-04-15T14:48:50;15.40;99.90
38582;DHT22;24349;53.720;10.014;2023-04-15T14:51:16;15.80;99.90
38582;DHT22;24349;53.720;10.014;2023-04-15T14:53:42;16.40;99.90
38582;DHT22;24349;53.720;10.014;2023-04-15T14:56:08;16.30;99.90
38582;DHT22;24349;53.720;10.014;2023-04-15T14:58:34;16.10;99.90
38582;DHT22;24349;53.720;10.014;2023-04-15T15:01:00;16.00;99.90
38582;DHT22;24349;53.720;10.014;2023-04-15T15:03:27;15.70;99.90
38582;DHT22;24349;53.720;10.014;2023-04-15T15:05:53;16.10;99.90
38582;DHT22;24349;53.720;10.014;2023-04-15T15:08:19;16.30;99.90
38582;DHT22;24349;53.720;10.014;2023-04-15T15:10:45;16.30;99.90
38582;DHT22;24349;53.720;10.014;2023-04-15T15:13:11;16.10;99.90
38582;DHT22;24349;53.720;10.014;2023-04-15T15:15:37;15.80;99.90
38582;DHT22;24349;53.720;10.014;2023-04-15T15:18:03;15.50;99.90
38582;DHT22;24349;53.720;10.014;2023-04-15T15:20:29;15.40;99.90
38582;DHT22;24349;53.720;10.014;2023-04-15T15:22:55;15.30;99.90
38582;DHT22;24349;53.720;10.014;2023-04-15T15:25:21;15.30;99.90
38582;DHT22;24349;53.720;10.014;2023-04-15T15:27:47;15.20;99.90
38582;DHT22;24349;53.720;10.014;2023-04-15T15:30:13;14.90;99.90
38582;DHT22;24349;53.720;10.014;2023-04-15T15:32:39;14.80;99.90
38582;DHT22;24349;53.720;10.014;2023-04-15T15:35:06;14.70;99.90
38582;DHT22;24349;53.720;10.014;2023-04-15T15:37:31;14.60;99.90
38582;DHT22;24349;53.720;10.014;2023-04-15T15:39:58;14.60;99.90